sensor_id;sensor_type;location;lat;lon;timestamp;P1;durP1;ratioP1;P2;durP2;ratioP2
36415;SDS011;22447;44.530;18.620;2024-01-07T00:00:47;350.15;;;146.05;;
36415;SDS011;22447;44.530;18.620;2024-01-07T00:03:13;425.92;;;172.50;;
36415;SDS011;22447;44.530;18.620;2024-01-07T00:05:39;350.80;;;149.77;;
36415;SDS011;22447;44.530;18.620;2024-01-07T00:08:05;366.60;;;156.10;;
36415;SDS011;22447;44.530;18.620;2024-01-07T00:10:31;364.73;;;156.25;;
36415;SDS011;22447;44.530;18.620;2024-01-07T00:12:56;353.05;;;149.30;;
36415;SDS011;22447;44.530;18.620;2024-01-07T00:15:22;314.63;;;137.27;;
36415;SDS011;22447;44.530;18.620;2024-01-07T00:17:52;229.50;;;109.95;;
36415;SDS011;22447;44.530;18.620;2024-01-07T00:20:17;255.52;;;116.25;;
36415;SDS011;22447;44.530;18.620;2024-01-07T00:22:43;251.70;;;115.82;;
36415;SDS011;22447;44.530;18.620;2024-01-07T00:25:09;252.80;;;114.47;;
36415;SDS011;22447;44.530;18.620;2024-01-07T00:27:35;241.02;;;115.50;;
36415;SDS011;22447;44.530;18.620;2024-01-07T00:30:01;246.48;;;117.05;;
36415;SDS011;22447;44.530;18.620;2024-01-07T00:32:27;232.40;;;115.90;;
36415;SDS011;22447;44.530;18.620;2024-01-07T00:34:52;212.82;;;114.22;;
36415;SDS011;22447;44.530;18.620;2024-01-07T00:37:19;214.13;;;112.75;;
36415;SDS011;22447;44.530;18.620;2024-01-07T00:39:44;193.77;;;102.28;;
36415;SDS011;22447;44.530;18.620;2024-01-07T00:42:11;167.52;;;90.15;;
36415;SDS011;22447;44.530;18.620;2024-01-07T00:44:37;126.63;;;67.70;;
36415;SDS011;22447;44.530;18.620;2024-01-07T00:47:03;131.98;;;67.55;;
36415;SDS011;22447;44.530;18.620;2024-01-07T00:49:30;157.07;;;82.20;;
36415;SDS011;22447;44.530;18.620;2024-01-07T00:51:56;153.70;;;77.10;;
36415;SDS011;22447;44.530;18.620;2024-01-07T00:54:22;162.52;;;76.22;;
36415;SDS011;22447;44.530;18.620;2024-01-07T00:56:48;145.02;;;75.28;;
36415;SDS011;22447;44.530;18.620;2024-01-07T00:59:15;159.70;;;84.75;;
36415;SDS011;22447;44.530;18.620;2024-01-07T01:01:41;171.00;;;90.32;;
36415;SDS011;22447;44.530;18.620;2024-01-07T01:04:07;162.85;;;86.30;;
36415;SDS011;22447;44.530;18.620;2024-01-07T01:06:34;156.52;;;84.53;;
36415;SDS011;22447;44.530;18.620;2024-01-07T01:09:00;179.95;;;93.47;;
36415;SDS011;22447;44.530;18.620;2024-01-07T01:11:25;192.77;;;97.03;;
36415;SDS011;22447;44.530;18.620;2024-01-07T01:13:51;172.55;;;91.43;;
36415;SDS011;22447;44.530;18.620;2024-01-07T01:16:18;173.63;;;93.03;;
36415;SDS011;22447;44.530;18.620;2024-01-07T01:18:44;183.70;;;95.53;;
36415;SDS011;22447;44.530;18.620;2024-01-07T01:21:10;196.70;;;103.80;;
36415;SDS011;22447;44.530;18.620;2024-01-07T01:23:37;192.02;;;99.80;;
36415;SDS011;22447;44.530;18.620;2024-01-07T01:26:03;196.82;;;104.15;;
36415;SDS011;22447;44.530;18.620;2024-01-07T01:28:29;204.68;;;107.75;;
36415;SDS011;22447;44.530;18.620;2024-01-07T01:30:55;198.80;;;105.57;;
36415;SDS011;22447;44.530;18.620;2024-01-07T01:33:21;191.43;;;102.38;;
36415;SDS011;22447;44.530;18.620;2024-01-07T01:35:47;182.70;;;100.85;;
36415;SDS011;22447;44.530;18.620;2024-01-07T01:38:13;176.88;;;94.93;;
36415;SDS011;22447;44.530;18.620;2024-01-07T01:40:39;183.57;;;98.03;;
36415;SDS011;22447;44.530;18.620;2024-01-07T01:43:05;173.68;;;90.57;;
36415;SDS011;22447;44.530;18.620;2024-01-07T01:45:30;174.10;;;94.72;;
36415;SDS011;22447;44.530;18.620;2024-01-07T01:47:56;165.77;;;93.10;;
36415;SDS011;22447;44.530;18.620;2024-01-07T01:50:22;172.85;;;96.68;;
36415;SDS011;22447;44.530;18.620;2024-01-07T01:52:48;168.10;;;91.95;;
36415;SDS011;22447;44.530;18.620;2024-01-07T01:55:14;168.65;;;93.47;;
36415;SDS011;22447;44.530;18.620;2024-01-07T01:57:41;167.40;;;91.53;;
36415;SDS011;22447;44.530;18.620;2024-01-07T02:00:07;165.23;;;92.00;;
36415;SDS011;22447;44.530;18.620;2024-01-07T02:02:33;166.45;;;92.93;;
36415;SDS011;22447;44.530;18.620;2024-01-07T02:05:03;156.55;;;87.45;;
36415;SDS011;22447;44.530;18.620;2024-01-07T02:07:32;152.85;;;83.55;;
36415;SDS011;22447;44.530;18.620;2024-01-07T02:09:59;141.40;;;78.47;;
36415;SDS011;22447;44.530;18.620;2024-01-07T02:12:25;141.98;;;80.22;;
36415;SDS011;22447;44.530;18.620;2024-01-07T02:14:50;144.40;;;78.68;;
36415;SDS011;22447;44.530;18.620;2024-01-07T02:17:16;143.82;;;78.60;;
36415;SDS011;22447;44.530;18.620;2024-01-07T02:19:43;141.77;;;77.78;;
36415;SDS011;22447;44.530;18.620;2024-01-07T02:22:09;135.02;;;76.22;;
36415;SDS011;22447;44.530;18.620;2024-01-07T02:24:37;128.45;;;72.03;;
36415;SDS011;22447;44.530;18.620;2024-01-07T02:27:02;133.65;;;72.70;;
36415;SDS011;22447;44.530;18.620;2024-01-07T02:29:28;127.05;;;70.93;;
36415;SDS011;22447;44.530;18.620;2024-01-07T02:31:54;134.52;;;74.47;;
36415;SDS011;22447;44.530;18.620;2024-01-07T02:34:20;127.15;;;72.80;;
36415;SDS011;22447;44.530;18.620;2024-01-07T02:36:46;131.23;;;70.55;;
36415;SDS011;22447;44.530;18.620;2024-01-07T02:39:12;122.50;;;66.63;;
36415;SDS011;22447;44.530;18.620;2024-01-07T02:41:38;107.00;;;60.40;;
36415;SDS011;22447;44.530;18.620;2024-01-07T02:44:04;121.90;;;66.90;;
36415;SDS011;22447;44.530;18.620;2024-01-07T02:46:30;117.13;;;64.97;;
36415;SDS011;22447;44.530;18.620;2024-01-07T02:48:56;111.55;;;60.88;;
36415;SDS011;22447;44.530;18.620;2024-01-07T02:51:22;115.82;;;62.10;;
36415;SDS011;22447;44.530;18.620;2024-01-07T02:53:48;108.45;;;60.95;;
36415;SDS011;22447;44.530;18.620;2024-01-07T02:56:14;105.38;;;59.58;;
36415;SDS011;22447;44.530;18.620;2024-01-07T02:58:39;108.45;;;62.15;;
36415;SDS011;22447;44.530;18.620;2024-01-07T03:01:08;114.53;;;62.80;;
36415;SDS011;22447;44.530;18.620;2024-01-07T03:03:38;110.30;;;60.95;;
36415;SDS011;22447;44.530;18.620;2024-01-07T03:06:04;106.13;;;59.55;;
36415;SDS011;22447;44.530;18.620;2024-01-07T03:08:30;108.40;;;61.10;;
36415;SDS011;22447;44.530;18.620;2024-01-07T03:10:56;106.72;;;60.45;;
36415;SDS011;22447;44.530;18.620;2024-01-07T03:13:22;102.70;;;57.50;;
36415;SDS011;22447;44.530;18.620;2024-01-07T03:15:48;97.18;;;54.78;;
36415;SDS011;22447;44.530;18.620;2024-01-07T03:18:13;98.88;;;54.65;;
36415;SDS011;22447;44.530;18.620;2024-01-07T03:20:39;95.15;;;55.05;;
36415;SDS011;22447;44.530;18.620;2024-01-07T03:23:06;92.25;;;53.97;;
36415;SDS011;22447;44.530;18.620;2024-01-07T03:25:31;90.35;;;53.58;;
36415;SDS011;22447;44.530;18.620;2024-01-07T03:27:57;97.30;;;54.63;;
36415;SDS011;22447;44.530;18.620;2024-01-07T03:30:23;89.25;;;52.38;;
36415;SDS011;22447;44.530;18.620;2024-01-07T03:32:49;90.60;;;52.30;;
36415;SDS011;22447;44.530;18.620;2024-01-07T03:35:15;90.60;;;52.45;;
36415;SDS011;22447;44.530;18.620;2024-01-07T03:37:40;87.43;;;51.53;;
36415;SDS011;22447;44.530;18.620;2024-01-07T03:40:10;87.93;;;50.90;;
36415;SDS011;22447;44.530;18.620;2024-01-07T03:42:37;87.22;;;51.88;;
36415;SDS011;22447;44.530;18.620;2024-01-07T03:45:03;91.80;;;53.03;;
36415;SDS011;22447;44.530;18.620;2024-01-07T03:47:29;89.47;;;50.60;;
36415;SDS011;22447;44.530;18.620;2024-01-07T03:49:56;96.05;;;50.20;;
36415;SDS011;22447;44.530;18.620;2024-01-07T03:52:22;84.57;;;50.85;;
36415;SDS011;22447;44.530;18.620;2024-01-07T03:54:48;89.70;;;50.05;;
36415;SDS011;22447;44.530;18.620;2024-01-07T03:57:14;85.15;;;50.17;;
36415;SDS011;22447;44.530;18.620;2024-01-07T03:59:40;86.32;;;50.65;;
36415;SDS011;22447;44.530;18.620;2024-01-07T04:02:06;85.47;;;49.08;;
36415;SDS011;22447;44.530;18.620;2024-01-07T04:04:32;77.85;;;48.05;;
36415;SDS011;22447;44.530;18.620;2024-01-07T04:06:57;85.78;;;48.60;;
36415;SDS011;22447;44.530;18.620;2024-01-07T04:09:23;80.18;;;45.13;;
36415;SDS011;22447;44.530;18.620;2024-01-07T04:11:49;79.25;;;44.72;;
36415;SDS011;22447;44.530;18.620;2024-01-07T04:14:15;76.65;;;45.33;;
36415;SDS011;22447;44.530;18.620;2024-01-07T04:16:41;80.15;;;47.38;;
36415;SDS011;22447;44.530;18.620;2024-01-07T04:19:07;83.13;;;44.72;;
36415;SDS011;22447;44.530;18.620;2024-01-07T04:21:33;77.25;;;46.03;;
36415;SDS011;22447;44.530;18.620;2024-01-07T04:23:59;76.72;;;44.97;;
36415;SDS011;22447;44.530;18.620;2024-01-07T04:26:25;70.55;;;42.40;;
36415;SDS011;22447;44.530;18.620;2024-01-07T04:28:50;76.70;;;43.20;;
36415;SDS011;22447;44.530;18.620;2024-01-07T04:31:16;84.82;;;45.50;;
36415;SDS011;22447;44.530;18.620;2024-01-07T04:33:42;78.47;;;42.75;;
36415;SDS011;22447;44.530;18.620;2024-01-07T04:36:08;79.47;;;44.95;;
36415;SDS011;22447;44.530;18.620;2024-01-07T04:38:34;86.50;;;44.40;;
36415;SDS011;22447;44.530;18.620;2024-01-07T04:41:00;72.13;;;41.60;;
36415;SDS011;22447;44.530;18.620;2024-01-07T04:43:26;75.50;;;43.88;;
36415;SDS011;22447;44.530;18.620;2024-01-07T04:45:52;75.25;;;42.65;;
36415;SDS011;22447;44.530;18.620;2024-01-07T04:48:18;75.55;;;43.42;;
36415;SDS011;22447;44.530;18.620;2024-01-07T04:50:44;78.47;;;44.30;;
36415;SDS011;22447;44.530;18.620;2024-01-07T04:53:10;74.20;;;42.63;;
36415;SDS011;22447;44.530;18.620;2024-01-07T04:55:36;73.43;;;42.15;;
36415;SDS011;22447;44.530;18.620;2024-01-07T04:58:02;82.85;;;44.65;;
36415;SDS011;22447;44.530;18.620;2024-01-07T05:00:29;78.78;;;43.58;;
36415;SDS011;22447;44.530;18.620;2024-01-07T05:02:56;82.78;;;43.80;;
36415;SDS011;22447;44.530;18.620;2024-01-07T05:05:21;81.63;;;45.17;;
36415;SDS011;22447;44.530;18.620;2024-01-07T05:07:47;78.45;;;43.03;;
36415;SDS011;22447;44.530;18.620;2024-01-07T05:10:13;80.57;;;42.70;;
36415;SDS011;22447;44.530;18.620;2024-01-07T05:12:39;75.45;;;42.75;;
36415;SDS011;22447;44.530;18.620;2024-01-07T05:15:05;80.70;;;42.95;;
36415;SDS011;22447;44.530;18.620;2024-01-07T05:17:31;81.13;;;44.33;;
36415;SDS011;22447;44.530;18.620;2024-01-07T05:19:57;79.18;;;44.45;;
36415;SDS011;22447;44.530;18.620;2024-01-07T05:22:23;77.82;;;42.65;;
36415;SDS011;22447;44.530;18.620;2024-01-07T05:24:49;84.05;;;46.13;;
36415;SDS011;22447;44.530;18.620;2024-01-07T05:27:15;79.47;;;44.92;;
36415;SDS011;22447;44.530;18.620;2024-01-07T05:29:44;77.60;;;44.40;;
36415;SDS011;22447;44.530;18.620;2024-01-07T05:32:11;86.75;;;44.97;;
36415;SDS011;22447;44.530;18.620;2024-01-07T05:34:37;89.05;;;47.53;;
36415;SDS011;22447;44.530;18.620;2024-01-07T05:37:03;87.82;;;45.92;;
36415;SDS011;22447;44.530;18.620;2024-01-07T05:39:29;82.82;;;45.65;;
36415;SDS011;22447;44.530;18.620;2024-01-07T05:41:55;85.22;;;44.28;;
36415;SDS011;22447;44.530;18.620;2024-01-07T05:44:21;83.55;;;44.10;;
36415;SDS011;22447;44.530;18.620;2024-01-07T05:46:46;83.32;;;45.10;;
36415;SDS011;22447;44.530;18.620;2024-01-07T05:49:12;93.13;;;45.35;;
36415;SDS011;22447;44.530;18.620;2024-01-07T05:51:39;85.63;;;44.05;;
36415;SDS011;22447;44.530;18.620;2024-01-07T05:54:05;79.10;;;43.97;;
36415;SDS011;22447;44.530;18.620;2024-01-07T05:56:31;80.50;;;44.10;;
36415;SDS011;22447;44.530;18.620;2024-01-07T05:58:57;84.03;;;44.25;;
36415;SDS011;22447;44.530;18.620;2024-01-07T06:01:23;76.22;;;45.88;;
36415;SDS011;22447;44.530;18.620;2024-01-07T06:03:49;82.10;;;46.28;;
36415;SDS011;22447;44.530;18.620;2024-01-07T06:06:14;84.95;;;45.50;;
36415;SDS011;22447;44.530;18.620;2024-01-07T06:08:41;92.63;;;45.10;;
36415;SDS011;22447;44.530;18.620;2024-01-07T06:11:07;83.35;;;45.67;;
36415;SDS011;22447;44.530;18.620;2024-01-07T06:13:33;86.63;;;47.22;;
36415;SDS011;22447;44.530;18.620;2024-01-07T06:15:59;85.40;;;47.17;;
36415;SDS011;22447;44.530;18.620;2024-01-07T06:18:25;81.70;;;45.88;;
36415;SDS011;22447;44.530;18.620;2024-01-07T06:20:51;86.22;;;46.63;;
36415;SDS011;22447;44.530;18.620;2024-01-07T06:23:17;93.68;;;47.83;;
36415;SDS011;22447;44.530;18.620;2024-01-07T06:25:43;84.70;;;44.97;;
36415;SDS011;22447;44.530;18.620;2024-01-07T06:28:10;84.47;;;46.65;;
36415;SDS011;22447;44.530;18.620;2024-01-07T06:30:36;78.15;;;45.13;;
36415;SDS011;22447;44.530;18.620;2024-01-07T06:33:02;86.10;;;46.13;;
36415;SDS011;22447;44.530;18.620;2024-01-07T06:35:28;78.93;;;45.42;;
36415;SDS011;22447;44.530;18.620;2024-01-07T06:37:54;78.78;;;45.05;;
36415;SDS011;22447;44.530;18.620;2024-01-07T06:40:20;78.82;;;44.08;;
36415;SDS011;22447;44.530;18.620;2024-01-07T06:42:46;79.45;;;45.13;;
36415;SDS011;22447;44.530;18.620;2024-01-07T06:45:14;79.18;;;44.65;;
36415;SDS011;22447;44.530;18.620;2024-01-07T06:47:40;80.68;;;44.22;;
36415;SDS011;22447;44.530;18.620;2024-01-07T06:50:06;87.03;;;47.90;;
36415;SDS011;22447;44.530;18.620;2024-01-07T06:52:32;81.40;;;47.22;;
36415;SDS011;22447;44.530;18.620;2024-01-07T06:54:58;77.25;;;44.97;;
36415;SDS011;22447;44.530;18.620;2024-01-07T06:57:24;81.82;;;46.10;;
36415;SDS011;22447;44.530;18.620;2024-01-07T06:59:50;88.57;;;47.92;;
36415;SDS011;22447;44.530;18.620;2024-01-07T07:02:16;83.47;;;47.65;;
36415;SDS011;22447;44.530;18.620;2024-01-07T07:04:42;77.72;;;45.15;;
36415;SDS011;22447;44.530;18.620;2024-01-07T07:07:08;81.25;;;46.08;;
36415;SDS011;22447;44.530;18.620;2024-01-07T07:09:33;96.25;;;49.85;;
36415;SDS011;22447;44.530;18.620;2024-01-07T07:11:59;92.47;;;47.97;;
36415;SDS011;22447;44.530;18.620;2024-01-07T07:14:25;85.47;;;48.33;;
36415;SDS011;22447;44.530;18.620;2024-01-07T07:16:51;79.25;;;46.20;;
36415;SDS011;22447;44.530;18.620;2024-01-07T07:19:17;87.53;;;48.58;;
36415;SDS011;22447;44.530;18.620;2024-01-07T07:21:43;84.80;;;46.88;;
36415;SDS011;22447;44.530;18.620;2024-01-07T07:24:09;90.47;;;49.08;;
36415;SDS011;22447;44.530;18.620;2024-01-07T07:26:35;85.82;;;46.33;;
36415;SDS011;22447;44.530;18.620;2024-01-07T07:29:06;78.13;;;45.22;;
36415;SDS011;22447;44.530;18.620;2024-01-07T07:31:35;84.63;;;48.13;;
36415;SDS011;22447;44.530;18.620;2024-01-07T07:34:04;71.60;;;43.60;;
36415;SDS011;22447;44.530;18.620;2024-01-07T07:36:30;84.05;;;46.22;;
36415;SDS011;22447;44.530;18.620;2024-01-07T07:38:56;84.97;;;46.47;;
36415;SDS011;22447;44.530;18.620;2024-01-07T07:41:22;71.65;;;43.15;;
36415;SDS011;22447;44.530;18.620;2024-01-07T07:43:48;79.07;;;45.40;;
36415;SDS011;22447;44.530;18.620;2024-01-07T07:46:14;74.03;;;42.90;;
36415;SDS011;22447;44.530;18.620;2024-01-07T07:48:41;65.78;;;42.10;;
36415;SDS011;22447;44.530;18.620;2024-01-07T07:51:07;73.38;;;44.63;;
36415;SDS011;22447;44.530;18.620;2024-01-07T07:53:33;76.30;;;44.65;;
36415;SDS011;22447;44.530;18.620;2024-01-07T07:55:59;82.88;;;46.33;;
36415;SDS011;22447;44.530;18.620;2024-01-07T07:58:26;81.15;;;45.20;;
36415;SDS011;22447;44.530;18.620;2024-01-07T08:00:52;90.03;;;48.60;;
36415;SDS011;22447;44.530;18.620;2024-01-07T08:03:18;98.95;;;52.10;;
36415;SDS011;22447;44.530;18.620;2024-01-07T08:05:43;81.88;;;46.05;;
36415;SDS011;22447;44.530;18.620;2024-01-07T08:08:09;80.47;;;45.50;;
36415;SDS011;22447;44.530;18.620;2024-01-07T08:10:35;81.18;;;44.80;;
36415;SDS011;22447;44.530;18.620;2024-01-07T08:13:01;76.05;;;44.30;;
36415;SDS011;22447;44.530;18.620;2024-01-07T08:15:27;73.97;;;42.72;;
36415;SDS011;22447;44.530;18.620;2024-01-07T08:17:53;69.97;;;42.35;;
36415;SDS011;22447;44.530;18.620;2024-01-07T08:20:19;76.70;;;43.90;;
36415;SDS011;22447;44.530;18.620;2024-01-07T08:22:44;76.75;;;42.83;;
36415;SDS011;22447;44.530;18.620;2024-01-07T08:25:10;80.43;;;45.08;;
36415;SDS011;22447;44.530;18.620;2024-01-07T08:27:36;71.13;;;42.90;;
36415;SDS011;22447;44.530;18.620;2024-01-07T08:30:03;63.72;;;41.38;;
36415;SDS011;22447;44.530;18.620;2024-01-07T08:32:29;64.95;;;40.55;;
36415;SDS011;22447;44.530;18.620;2024-01-07T08:34:55;67.18;;;40.40;;
36415;SDS011;22447;44.530;18.620;2024-01-07T08:37:21;70.82;;;42.85;;
36415;SDS011;22447;44.530;18.620;2024-01-07T08:39:46;70.43;;;43.35;;
36415;SDS011;22447;44.530;18.620;2024-01-07T08:42:12;69.80;;;41.72;;
36415;SDS011;22447;44.530;18.620;2024-01-07T08:44:38;71.07;;;43.38;;
36415;SDS011;22447;44.530;18.620;2024-01-07T08:47:04;69.43;;;41.92;;
36415;SDS011;22447;44.530;18.620;2024-01-07T08:49:31;71.55;;;44.40;;
36415;SDS011;22447;44.530;18.620;2024-01-07T08:51:59;76.43;;;45.08;;
36415;SDS011;22447;44.530;18.620;2024-01-07T08:54:25;68.22;;;41.60;;
36415;SDS011;22447;44.530;18.620;2024-01-07T08:56:51;69.35;;;41.25;;
36415;SDS011;22447;44.530;18.620;2024-01-07T08:59:17;72.90;;;43.13;;
36415;SDS011;22447;44.530;18.620;2024-01-07T09:01:43;61.10;;;39.38;;
36415;SDS011;22447;44.530;18.620;2024-01-07T09:04:09;64.28;;;39.53;;
36415;SDS011;22447;44.530;18.620;2024-01-07T09:06:35;56.53;;;36.65;;
36415;SDS011;22447;44.530;18.620;2024-01-07T09:09:00;59.65;;;37.55;;
36415;SDS011;22447;44.530;18.620;2024-01-07T09:11:26;69.40;;;42.00;;
36415;SDS011;22447;44.530;18.620;2024-01-07T09:13:52;66.50;;;40.88;;
36415;SDS011;22447;44.530;18.620;2024-01-07T09:16:18;61.53;;;39.47;;
36415;SDS011;22447;44.530;18.620;2024-01-07T09:18:44;68.40;;;39.83;;
36415;SDS011;22447;44.530;18.620;2024-01-07T09:21:11;62.63;;;39.90;;
36415;SDS011;22447;44.530;18.620;2024-01-07T09:23:37;59.88;;;38.42;;
36415;SDS011;22447;44.530;18.620;2024-01-07T09:26:03;64.63;;;39.53;;
36415;SDS011;22447;44.530;18.620;2024-01-07T09:28:29;64.60;;;40.92;;
36415;SDS011;22447;44.530;18.620;2024-01-07T09:30:55;68.28;;;39.72;;
36415;SDS011;22447;44.530;18.620;2024-01-07T09:33:21;65.10;;;39.45;;
36415;SDS011;22447;44.530;18.620;2024-01-07T09:35:49;64.82;;;41.17;;
36415;SDS011;22447;44.530;18.620;2024-01-07T09:38:15;74.57;;;42.42;;
36415;SDS011;22447;44.530;18.620;2024-01-07T09:40:42;70.10;;;40.83;;
36415;SDS011;22447;44.530;18.620;2024-01-07T09:43:08;73.10;;;42.47;;
36415;SDS011;22447;44.530;18.620;2024-01-07T09:45:36;64.60;;;41.15;;
36415;SDS011;22447;44.530;18.620;2024-01-07T09:48:03;71.72;;;40.75;;
36415;SDS011;22447;44.530;18.620;2024-01-07T09:50:30;65.35;;;41.55;;
36415;SDS011;22447;44.530;18.620;2024-01-07T09:52:56;70.32;;;42.47;;
36415;SDS011;22447;44.530;18.620;2024-01-07T09:55:27;66.97;;;40.72;;
36415;SDS011;22447;44.530;18.620;2024-01-07T09:58:02;75.18;;;42.28;;
36415;SDS011;22447;44.530;18.620;2024-01-07T10:00:28;65.75;;;39.90;;
36415;SDS011;22447;44.530;18.620;2024-01-07T10:02:55;63.83;;;39.25;;
36415;SDS011;22447;44.530;18.620;2024-01-07T10:05:21;66.40;;;40.05;;
36415;SDS011;22447;44.530;18.620;2024-01-07T10:07:47;60.92;;;39.58;;
36415;SDS011;22447;44.530;18.620;2024-01-07T10:10:16;65.70;;;39.67;;
36415;SDS011;22447;44.530;18.620;2024-01-07T10:12:46;63.47;;;38.15;;
36415;SDS011;22447;44.530;18.620;2024-01-07T10:15:12;68.40;;;39.50;;
36415;SDS011;22447;44.530;18.620;2024-01-07T10:17:40;58.45;;;38.53;;
36415;SDS011;22447;44.530;18.620;2024-01-07T10:20:10;61.90;;;38.60;;
36415;SDS011;22447;44.530;18.620;2024-01-07T10:22:38;60.90;;;38.67;;
36415;SDS011;22447;44.530;18.620;2024-01-07T10:25:04;57.67;;;35.47;;
36415;SDS011;22447;44.530;18.620;2024-01-07T10:27:37;64.85;;;38.67;;
36415;SDS011;22447;44.530;18.620;2024-01-07T10:30:03;69.00;;;40.88;;
36415;SDS011;22447;44.530;18.620;2024-01-07T10:32:30;59.97;;;38.45;;
36415;SDS011;22447;44.530;18.620;2024-01-07T10:34:57;67.20;;;41.63;;
36415;SDS011;22447;44.530;18.620;2024-01-07T10:37:31;71.22;;;41.50;;
36415;SDS011;22447;44.530;18.620;2024-01-07T10:39:58;63.90;;;39.10;;
36415;SDS011;22447;44.530;18.620;2024-01-07T10:42:30;66.68;;;38.53;;
36415;SDS011;22447;44.530;18.620;2024-01-07T10:44:59;68.03;;;41.00;;
36415;SDS011;22447;44.530;18.620;2024-01-07T10:47:30;61.22;;;36.92;;
36415;SDS011;22447;44.530;18.620;2024-01-07T10:49:57;63.83;;;39.22;;
36415;SDS011;22447;44.530;18.620;2024-01-07T10:52:26;62.70;;;37.60;;
36415;SDS011;22447;44.530;18.620;2024-01-07T10:54:56;73.47;;;40.70;;
36415;SDS011;22447;44.530;18.620;2024-01-07T11:00:04;54.30;;;34.90;;
36415;SDS011;22447;44.530;18.620;2024-01-07T11:02:38;53.78;;;34.72;;
36415;SDS011;22447;44.530;18.620;2024-01-07T11:05:15;49.78;;;33.03;;
36415;SDS011;22447;44.530;18.620;2024-01-07T11:07:56;52.20;;;33.35;;
36415;SDS011;22447;44.530;18.620;2024-01-07T11:10:29;59.75;;;35.70;;
36415;SDS011;22447;44.530;18.620;2024-01-07T11:13:02;56.22;;;36.05;;
36415;SDS011;22447;44.530;18.620;2024-01-07T11:18:19;61.45;;;38.08;;
36415;SDS011;22447;44.530;18.620;2024-01-07T11:20:46;54.75;;;34.05;;
36415;SDS011;22447;44.530;18.620;2024-01-07T11:23:28;54.38;;;34.28;;
36415;SDS011;22447;44.530;18.620;2024-01-07T11:26:01;49.65;;;32.47;;
36415;SDS011;22447;44.530;18.620;2024-01-07T11:36:36;61.15;;;35.63;;
36415;SDS011;22447;44.530;18.620;2024-01-07T11:39:04;58.22;;;34.15;;
36415;SDS011;22447;44.530;18.620;2024-01-07T11:41:34;54.25;;;34.75;;
36415;SDS011;22447;44.530;18.620;2024-01-07T11:44:01;55.42;;;34.78;;
36415;SDS011;22447;44.530;18.620;2024-01-07T11:46:28;72.13;;;45.75;;
36415;SDS011;22447;44.530;18.620;2024-01-07T11:48:56;79.63;;;52.75;;
36415;SDS011;22447;44.530;18.620;2024-01-07T11:51:26;67.57;;;42.40;;
36415;SDS011;22447;44.530;18.620;2024-01-07T11:53:56;64.45;;;41.13;;
36415;SDS011;22447;44.530;18.620;2024-01-07T11:56:24;68.53;;;41.38;;
36415;SDS011;22447;44.530;18.620;2024-01-07T11:58:51;123.32;;;73.22;;
36415;SDS011;22447;44.530;18.620;2024-01-07T12:01:18;131.38;;;77.25;;
36415;SDS011;22447;44.530;18.620;2024-01-07T12:03:44;130.60;;;76.88;;
36415;SDS011;22447;44.530;18.620;2024-01-07T12:06:10;121.00;;;73.22;;
36415;SDS011;22447;44.530;18.620;2024-01-07T12:08:42;100.25;;;59.42;;
36415;SDS011;22447;44.530;18.620;2024-01-07T12:11:10;96.72;;;57.80;;
36415;SDS011;22447;44.530;18.620;2024-01-07T12:13:38;81.97;;;49.80;;
36415;SDS011;22447;44.530;18.620;2024-01-07T12:16:05;75.38;;;46.35;;
36415;SDS011;22447;44.530;18.620;2024-01-07T12:18:31;79.53;;;46.00;;
36415;SDS011;22447;44.530;18.620;2024-01-07T12:20:57;81.20;;;46.35;;
36415;SDS011;22447;44.530;18.620;2024-01-07T12:23:25;92.55;;;49.33;;
36415;SDS011;22447;44.530;18.620;2024-01-07T12:25:51;90.10;;;50.45;;
36415;SDS011;22447;44.530;18.620;2024-01-07T12:28:18;102.63;;;54.47;;
36415;SDS011;22447;44.530;18.620;2024-01-07T12:30:44;123.57;;;59.50;;
36415;SDS011;22447;44.530;18.620;2024-01-07T12:33:11;139.65;;;67.53;;
36415;SDS011;22447;44.530;18.620;2024-01-07T12:35:36;128.10;;;64.13;;
36415;SDS011;22447;44.530;18.620;2024-01-07T12:38:04;96.72;;;51.40;;
36415;SDS011;22447;44.530;18.620;2024-01-07T12:40:30;104.15;;;54.78;;
36415;SDS011;22447;44.530;18.620;2024-01-07T12:42:56;85.40;;;47.47;;
36415;SDS011;22447;44.530;18.620;2024-01-07T12:45:22;66.28;;;40.38;;
36415;SDS011;22447;44.530;18.620;2024-01-07T12:47:48;67.85;;;39.30;;
36415;SDS011;22447;44.530;18.620;2024-01-07T12:50:14;67.20;;;42.17;;
36415;SDS011;22447;44.530;18.620;2024-01-07T12:52:40;66.70;;;41.15;;
36415;SDS011;22447;44.530;18.620;2024-01-07T12:55:07;58.60;;;38.30;;
36415;SDS011;22447;44.530;18.620;2024-01-07T12:57:33;69.00;;;42.70;;
36415;SDS011;22447;44.530;18.620;2024-01-07T12:59:59;69.75;;;41.67;;
36415;SDS011;22447;44.530;18.620;2024-01-07T13:02:26;72.05;;;42.92;;
36415;SDS011;22447;44.530;18.620;2024-01-07T13:04:52;71.70;;;43.10;;
36415;SDS011;22447;44.530;18.620;2024-01-07T13:07:17;79.72;;;47.55;;
36415;SDS011;22447;44.530;18.620;2024-01-07T13:09:43;97.32;;;61.30;;
36415;SDS011;22447;44.530;18.620;2024-01-07T13:12:10;114.05;;;71.45;;
36415;SDS011;22447;44.530;18.620;2024-01-07T13:14:36;160.57;;;96.15;;
36415;SDS011;22447;44.530;18.620;2024-01-07T13:17:02;138.45;;;89.07;;
36415;SDS011;22447;44.530;18.620;2024-01-07T13:19:29;136.63;;;88.68;;
36415;SDS011;22447;44.530;18.620;2024-01-07T13:21:55;137.32;;;89.75;;
36415;SDS011;22447;44.530;18.620;2024-01-07T13:24:23;129.95;;;86.47;;
36415;SDS011;22447;44.530;18.620;2024-01-07T13:26:49;121.35;;;78.63;;
36415;SDS011;22447;44.530;18.620;2024-01-07T13:29:15;111.55;;;70.93;;
36415;SDS011;22447;44.530;18.620;2024-01-07T13:31:41;115.38;;;71.85;;
36415;SDS011;22447;44.530;18.620;2024-01-07T13:34:07;78.57;;;50.88;;
36415;SDS011;22447;44.530;18.620;2024-01-07T13:36:33;50.28;;;31.17;;
36415;SDS011;22447;44.530;18.620;2024-01-07T13:38:59;48.33;;;30.23;;
36415;SDS011;22447;44.530;18.620;2024-01-07T13:41:25;44.63;;;24.77;;
36415;SDS011;22447;44.530;18.620;2024-01-07T13:43:54;31.42;;;18.25;;
36415;SDS011;22447;44.530;18.620;2024-01-07T13:46:21;30.35;;;17.65;;
36415;SDS011;22447;44.530;18.620;2024-01-07T13:48:50;26.77;;;14.23;;
36415;SDS011;22447;44.530;18.620;2024-01-07T13:51:17;24.38;;;13.82;;
36415;SDS011;22447;44.530;18.620;2024-01-07T13:53:43;30.75;;;14.50;;
36415;SDS011;22447;44.530;18.620;2024-01-07T13:56:11;25.90;;;12.52;;
36415;SDS011;22447;44.530;18.620;2024-01-07T13:58:37;14.80;;;7.90;;
36415;SDS011;22447;44.530;18.620;2024-01-07T14:01:03;15.98;;;9.48;;
36415;SDS011;22447;44.530;18.620;2024-01-07T14:03:30;13.60;;;8.23;;
36415;SDS011;22447;44.530;18.620;2024-01-07T14:05:58;9.93;;;6.45;;
36415;SDS011;22447;44.530;18.620;2024-01-07T14:08:25;13.57;;;6.65;;
36415;SDS011;22447;44.530;18.620;2024-01-07T14:10:52;11.30;;;6.28;;
36415;SDS011;22447;44.530;18.620;2024-01-07T14:13:17;17.52;;;8.52;;